createdAt,value
2023-04-21T00:00:16.743Z,8.20
2023-04-21T00:02:46.549Z,8.30
2023-04-21T00:05:14.241Z,8.15
2023-04-21T00:07:42.427Z,8.24
2023-04-21T00:10:10.555Z,8.22
2023-04-21T00:12:38.268Z,8.18
2023-04-21T00:15:06.911Z,8.10
2023-04-21T00:17:35.929Z,8.12
2023-04-21T00:20:04.550Z,8.15
2023-04-21T00:22:32.021Z,8.05
2023-04-21T00:24:59.459Z,8.06
2023-04-21T00:27:26.921Z,8.01
2023-04-21T00:29:54.347Z,7.95
2023-04-21T00:32:21.811Z,7.99
2023-04-21T00:34:50.649Z,7.99
2023-04-21T00:37:18.108Z,8.00
2023-04-21T00:39:45.593Z,8.06
2023-04-21T00:42:16.336Z,8.02
2023-04-21T00:44:43.782Z,7.93
2023-04-21T00:47:11.569Z,7.94
2023-04-21T00:49:39.120Z,7.90
2023-04-21T00:52:08.038Z,7.85
2023-04-21T00:54:36.548Z,7.84
2023-04-21T00:57:04.640Z,7.78
2023-04-21T00:59:32.138Z,7.81
2023-04-21T01:01:59.735Z,7.78
2023-04-21T01:04:27.251Z,7.76
2023-04-21T01:06:54.791Z,7.77
2023-04-21T01:09:23.678Z,7.73
2023-04-21T01:12:03.482Z,7.71
2023-04-21T01:14:31.021Z,7.72
2023-04-21T01:16:59.157Z,7.66
2023-04-21T01:19:27.897Z,7.64
2023-04-21T01:21:57.544Z,7.55
2023-04-21T01:24:25.503Z,7.53
2023-04-21T01:26:52.947Z,7.61
2023-04-21T01:29:20.616Z,7.60
2023-04-21T01:31:48.280Z,7.66
2023-04-21T01:34:16.116Z,7.61
2023-04-21T01:36:43.569Z,7.65
2023-04-21T01:39:12.390Z,7.62
2023-04-21T01:41:39.828Z,7.62
2023-04-21T01:44:07.273Z,7.54
2023-04-21T01:46:34.797Z,7.45
2023-04-21T01:49:02.272Z,7.52
2023-04-21T01:51:29.781Z,7.52
2023-04-21T01:53:57.213Z,7.55
2023-04-21T01:56:25.998Z,7.49
2023-04-21T01:58:53.548Z,7.64
2023-04-21T02:01:21.073Z,7.61
2023-04-21T02:03:48.831Z,7.65
2023-04-21T02:06:17.756Z,7.59
2023-04-21T02:08:45.238Z,7.55
2023-04-21T02:11:12.722Z,7.61
2023-04-21T02:13:41.824Z,7.56
2023-04-21T02:16:13.957Z,7.68
2023-04-21T02:18:41.750Z,7.71
2023-04-21T02:21:09.182Z,7.69
2023-04-21T02:23:36.682Z,7.70
2023-04-21T02:26:04.137Z,7.62
2023-04-21T02:28:31.613Z,7.61
2023-04-21T02:31:00.463Z,7.59
2023-04-21T02:33:28.001Z,7.55
2023-04-21T02:35:55.627Z,7.58
2023-04-21T02:38:23.066Z,7.56
2023-04-21T02:40:50.544Z,7.60
2023-04-21T02:43:18.120Z,7.53
2023-04-21T02:45:45.944Z,7.54
2023-04-21T02:48:14.788Z,7.52
2023-04-21T02:50:43.734Z,7.49
2023-04-21T02:53:11.165Z,7.54
2023-04-21T02:55:38.613Z,7.54
2023-04-21T02:58:06.087Z,7.56
2023-04-21T03:00:33.581Z,7.51
2023-04-21T03:03:01.698Z,7.47
2023-04-21T03:05:30.598Z,7.53
2023-04-21T03:07:58.035Z,7.50
2023-04-21T03:10:25.664Z,7.53
2023-04-21T03:12:53.507Z,7.60
2023-04-21T03:15:22.563Z,7.50
2023-04-21T03:17:50.088Z,7.52
2023-04-21T03:20:17.813Z,7.54
2023-04-21T03:22:46.610Z,7.52
2023-04-21T03:25:14.273Z,7.53
2023-04-21T03:27:41.732Z,7.47
2023-04-21T03:30:10.324Z,7.50
2023-04-21T03:32:37.787Z,7.48
2023-04-21T03:35:05.791Z,7.45
2023-04-21T03:37:33.235Z,7.52
2023-04-21T03:40:02.080Z,7.50
2023-04-21T03:42:30.104Z,7.51
2023-04-21T03:44:57.606Z,7.48
2023-04-21T03:47:25.363Z,7.38
2023-04-21T03:49:52.868Z,7.39
2023-04-21T03:52:20.329Z,7.36
2023-04-21T03:54:48.016Z,7.32
2023-04-21T03:57:17.116Z,7.31
2023-04-21T03:59:45.029Z,7.22
2023-04-21T04:02:12.607Z,7.21
2023-04-21T04:04:40.329Z,7.19
2023-04-21T04:07:09.966Z,7.23
2023-04-21T04:09:37.475Z,7.29
2023-04-21T04:12:05.432Z,7.19
2023-04-21T04:14:34.270Z,7.21
2023-04-21T04:17:01.718Z,7.22
2023-04-21T04:19:32.146Z,7.25
2023-04-21T04:22:00.584Z,7.27
2023-04-21T04:24:28.378Z,7.31
2023-04-21T04:26:57.804Z,7.37
2023-04-21T04:29:25.571Z,7.30
2023-04-21T04:31:54.392Z,7.25
2023-04-21T04:34:23.119Z,7.32
2023-04-21T04:36:53.741Z,7.23
2023-04-21T04:39:22.150Z,7.32
2023-04-21T04:41:49.614Z,7.29
2023-04-21T04:44:17.966Z,7.26
2023-04-21T04:46:46.412Z,7.29
2023-04-21T04:49:15.391Z,7.36
2023-04-21T04:51:42.827Z,7.32
2023-04-21T04:54:10.303Z,7.34
2023-04-21T04:56:37.812Z,7.47
2023-04-21T04:59:05.292Z,7.40
2023-04-21T05:01:32.794Z,7.36
2023-04-21T05:04:00.412Z,7.50
2023-04-21T05:06:29.395Z,7.48
2023-04-21T05:08:57.058Z,7.51
2023-04-21T05:11:24.603Z,7.61
2023-04-21T05:13:52.089Z,7.60
2023-04-21T05:16:19.594Z,7.56
2023-04-21T05:18:47.038Z,7.58
2023-04-21T05:21:14.488Z,7.60
2023-04-21T05:23:43.240Z,7.55
2023-04-21T05:26:10.695Z,7.60
2023-04-21T05:28:38.161Z,7.65
2023-04-21T05:31:06.862Z,7.58
2023-04-21T05:33:34.293Z,7.43
2023-04-21T05:36:01.730Z,7.48
2023-04-21T05:38:29.191Z,7.63
2023-04-21T05:41:06.827Z,7.70
2023-04-21T05:43:34.411Z,7.74
2023-04-21T05:46:01.937Z,7.79
2023-04-21T05:48:29.559Z,7.83
2023-04-21T05:50:57.297Z,7.88
2023-04-21T05:53:24.771Z,7.81
2023-04-21T05:55:52.252Z,7.62
2023-04-21T05:58:21.072Z,7.71
2023-04-21T06:00:49.246Z,7.66
2023-04-21T06:03:16.904Z,7.69
2023-04-21T06:05:46.971Z,7.86
2023-04-21T06:08:14.688Z,8.05
2023-04-21T06:10:42.547Z,8.20
2023-04-21T06:13:09.985Z,8.28
2023-04-21T06:15:38.781Z,8.33
2023-04-21T06:18:06.592Z,8.37
2023-04-21T06:20:34.095Z,8.33
2023-04-21T06:23:01.552Z,8.40
2023-04-21T06:25:30.091Z,8.36
2023-04-21T06:27:57.542Z,8.36
2023-04-21T06:30:25.053Z,8.39
2023-04-21T06:32:53.848Z,8.45
2023-04-21T06:35:21.850Z,8.48
2023-04-21T06:37:49.304Z,8.49
2023-04-21T06:40:16.812Z,8.52
2023-04-21T06:42:44.316Z,8.53
2023-04-21T06:45:12.374Z,8.67
2023-04-21T06:47:39.866Z,8.74
2023-04-21T06:50:09.933Z,8.79
2023-04-21T06:52:37.372Z,8.89
2023-04-21T06:55:05.617Z,9.03
2023-04-21T06:57:33.113Z,9.07
2023-04-21T07:00:00.601Z,9.10
2023-04-21T07:02:28.183Z,9.24
2023-04-21T07:04:55.755Z,9.33
2023-04-21T07:07:24.587Z,9.36
2023-04-21T07:09:52.033Z,9.48
2023-04-21T07:12:19.562Z,9.58
2023-04-21T07:14:47.004Z,9.53
2023-04-21T07:17:14.449Z,9.58
2023-04-21T07:19:41.916Z,9.74
2023-04-21T07:22:09.447Z,9.79
2023-04-21T07:24:39.261Z,9.75
2023-04-21T07:27:06.712Z,9.86
2023-04-21T07:29:34.265Z,10.01
2023-04-21T07:32:01.868Z,10.04
2023-04-21T07:34:29.358Z,10.15
2023-04-21T07:36:57.321Z,10.16
2023-04-21T07:39:24.826Z,10.11
2023-04-21T07:41:53.891Z,10.13
2023-04-21T07:44:21.337Z,10.32
2023-04-21T07:46:48.848Z,10.41
2023-04-21T07:49:16.657Z,10.41
2023-04-21T07:51:44.081Z,10.36
2023-04-21T07:54:11.588Z,10.34
2023-04-21T07:56:40.065Z,10.14
2023-04-21T07:59:08.848Z,10.26
2023-04-21T08:01:36.309Z,10.24
2023-04-21T08:04:03.950Z,10.32
2023-04-21T08:06:33.511Z,10.59
2023-04-21T08:09:01.153Z,10.75
2023-04-21T08:11:29.069Z,10.71
2023-04-21T08:13:57.548Z,10.84
2023-04-21T08:16:26.457Z,10.84
2023-04-21T08:18:54.029Z,11.01
2023-04-21T08:21:21.704Z,11.07
2023-04-21T08:23:49.269Z,10.98
2023-04-21T08:26:16.761Z,11.11
2023-04-21T08:28:44.227Z,11.23
2023-04-21T08:31:11.701Z,11.34
2023-04-21T08:33:49.812Z,11.41
2023-04-21T08:36:29.002Z,11.48
2023-04-21T08:39:00.465Z,11.52
2023-04-21T08:41:28.127Z,11.40
2023-04-21T08:43:55.587Z,11.52
2023-04-21T08:46:24.170Z,11.71
2023-04-21T08:48:55.055Z,11.65
2023-04-21T08:51:24.778Z,11.89
2023-04-21T08:53:52.741Z,11.97
2023-04-21T08:56:20.267Z,12.16
2023-04-21T08:58:47.744Z,12.21
2023-04-21T09:01:15.251Z,12.20
2023-04-21T09:03:43.015Z,11.97
2023-04-21T09:06:12.755Z,12.10
2023-04-21T09:08:43.312Z,11.86
2023-04-21T09:11:14.742Z,12.01
2023-04-21T09:13:43.568Z,12.14
2023-04-21T09:16:17.223Z,12.21
2023-04-21T09:18:45.144Z,12.17
2023-04-21T09:21:15.700Z,12.14
2023-04-21T09:23:44.173Z,12.20
2023-04-21T09:26:12.384Z,12.21
2023-04-21T09:28:42.258Z,12.26
2023-04-21T09:31:15.355Z,12.25
2023-04-21T09:33:57.954Z,12.39
2023-04-21T09:36:30.374Z,12.55
2023-04-21T09:41:29.328Z,12.83
2023-04-21T09:44:01.200Z,12.89
2023-04-21T09:46:30.587Z,12.85
2023-04-21T09:49:00.396Z,12.93
2023-04-21T09:51:49.112Z,12.90
2023-04-21T09:56:51.104Z,13.29
2023-04-21T09:59:23.431Z,13.05
2023-04-21T10:01:52.425Z,13.21
2023-04-21T10:04:21.416Z,13.31
2023-04-21T10:06:50.712Z,13.60
2023-04-21T10:09:19.461Z,13.38
2023-04-21T10:11:46.987Z,13.57
2023-04-21T10:14:14.811Z,13.58
2023-04-21T10:16:43.479Z,13.67
2023-04-21T10:19:27.747Z,13.96
2023-04-21T10:21:58.023Z,14.10
2023-04-21T10:24:25.706Z,13.99
2023-04-21T10:26:55.023Z,14.01
2023-04-21T10:29:40.045Z,14.16
2023-04-21T10:32:11.739Z,14.24
2023-04-21T10:34:39.914Z,14.05
2023-04-21T10:37:19.482Z,14.05
2023-04-21T10:39:54.571Z,14.37
2023-04-21T10:42:31.189Z,14.34
2023-04-21T10:45:04.006Z,14.58
2023-04-21T10:47:38.077Z,14.64
2023-04-21T10:50:13.726Z,14.60
2023-04-21T10:52:44.898Z,14.63
2023-04-21T10:55:15.588Z,14.77
2023-04-21T10:57:45.435Z,14.60
2023-04-21T11:00:17.399Z,14.47
2023-04-21T11:02:45.346Z,14.58
2023-04-21T11:05:13.115Z,14.75
2023-04-21T11:07:41.952Z,14.83
2023-04-21T11:10:11.116Z,14.92
2023-04-21T11:12:40.406Z,15.28
2023-04-21T11:15:10.165Z,15.30
2023-04-21T11:17:39.593Z,15.46
2023-04-21T11:20:08.692Z,15.38
2023-04-21T11:22:37.739Z,15.33
2023-04-21T11:25:08.065Z,15.39
2023-04-21T11:27:35.522Z,15.42
2023-04-21T11:30:04.714Z,15.65
2023-04-21T11:32:32.210Z,15.61
2023-04-21T11:34:59.748Z,15.86
2023-04-21T11:37:28.019Z,15.86
2023-04-21T11:39:59.449Z,15.81
2023-04-21T11:42:28.697Z,15.65
2023-04-21T11:44:57.387Z,15.82
2023-04-21T11:47:26.120Z,15.84
2023-04-21T11:49:56.044Z,15.78
2023-04-21T11:52:25.292Z,15.59
2023-04-21T11:54:56.770Z,15.67
2023-04-21T11:57:25.290Z,15.74
2023-04-21T11:59:54.350Z,15.91
2023-04-21T12:02:24.359Z,15.92
2023-04-21T12:05:02.387Z,16.02
2023-04-21T12:07:31.080Z,15.89
2023-04-21T12:09:58.927Z,15.86
2023-04-21T12:12:26.685Z,15.93
2023-04-21T12:14:55.510Z,15.89
2023-04-21T12:17:23.083Z,16.02
2023-04-21T12:19:50.580Z,16.04
2023-04-21T12:22:19.197Z,15.84
2023-04-21T12:24:47.089Z,15.95
2023-04-21T12:27:14.784Z,15.90
2023-04-21T12:29:42.671Z,16.29
2023-04-21T12:32:11.556Z,16.44
2023-04-21T12:34:39.019Z,16.54
2023-04-21T12:37:06.724Z,16.58
2023-04-21T12:39:34.523Z,16.41
2023-04-21T12:42:02.622Z,16.62
2023-04-21T12:44:30.673Z,16.38
2023-04-21T12:46:58.796Z,16.29
2023-04-21T12:49:27.745Z,16.11
2023-04-21T12:51:55.308Z,16.35
2023-04-21T12:54:22.824Z,16.21
2023-04-21T12:56:50.292Z,15.85
2023-04-21T12:59:17.840Z,15.78
2023-04-21T13:01:45.328Z,16.18
2023-04-21T13:04:13.146Z,15.99
2023-04-21T13:06:42.208Z,15.79
2023-04-21T13:09:09.755Z,15.97
2023-04-21T13:12:06.896Z,16.00
2023-04-21T13:14:34.412Z,16.17
2023-04-21T13:17:02.063Z,16.37
2023-04-21T13:19:30.065Z,16.51
2023-04-21T13:21:59.284Z,16.41
2023-04-21T13:24:26.935Z,16.44
2023-04-21T13:26:54.601Z,16.53
2023-04-21T13:29:22.057Z,16.56
2023-04-21T13:31:49.561Z,16.62
2023-04-21T13:34:17.038Z,16.66
2023-04-21T13:36:44.491Z,16.74
2023-04-21T13:39:13.341Z,16.84
2023-04-21T13:41:40.787Z,16.83
2023-04-21T13:44:08.332Z,16.96
2023-04-21T13:46:36.206Z,16.89
2023-04-21T13:49:03.758Z,16.80
2023-04-21T13:51:32.148Z,16.89
2023-04-21T13:53:59.641Z,16.96
2023-04-21T13:56:28.511Z,17.05
2023-04-21T13:58:56.002Z,17.20
2023-04-21T14:01:23.520Z,17.33
2023-04-21T14:03:51.222Z,17.31
2023-04-21T14:06:18.908Z,17.28
2023-04-21T14:08:46.512Z,17.25
2023-04-21T14:11:13.993Z,17.33
2023-04-21T14:13:52.279Z,17.42
2023-04-21T14:16:27.295Z,17.41
2023-04-21T14:18:54.828Z,17.47
2023-04-21T14:21:22.423Z,17.56
2023-04-21T14:23:49.873Z,17.55
2023-04-21T14:26:17.390Z,17.59
2023-04-21T14:28:46.266Z,17.62
2023-04-21T14:31:13.799Z,17.69
2023-04-21T14:33:41.625Z,17.61
2023-04-21T14:36:10.338Z,17.68
2023-04-21T14:38:37.869Z,17.74
2023-04-21T14:41:05.751Z,17.72
2023-04-21T14:43:33.456Z,17.80
2023-04-21T14:46:02.339Z,17.83
2023-04-21T14:48:29.936Z,17.88
2023-04-21T14:50:57.935Z,17.97
2023-04-21T14:53:25.688Z,18.04
2023-04-21T14:55:54.713Z,18.12
2023-04-21T14:58:22.508Z,18.22
2023-04-21T15:00:50.084Z,18.25
2023-04-21T15:03:19.075Z,18.33
2023-04-21T15:05:46.612Z,18.36
2023-04-21T15:08:17.967Z,18.34
2023-04-21T15:10:45.592Z,18.40
2023-04-21T15:13:13.221Z,18.34
2023-04-21T15:15:40.952Z,18.31
2023-04-21T15:18:08.850Z,18.30
2023-04-21T15:20:44.293Z,18.34
2023-04-21T15:23:12.430Z,18.35
2023-04-21T15:25:40.196Z,18.34
2023-04-21T15:28:08.488Z,18.41
2023-04-21T15:30:36.283Z,18.43
2023-04-21T15:33:03.880Z,18.41
2023-04-21T15:35:31.360Z,18.48
2023-04-21T15:38:00.243Z,18.44
2023-04-21T15:40:27.778Z,18.38
2023-04-21T15:42:55.320Z,18.44
2023-04-21T15:45:22.848Z,18.46
2023-04-21T15:47:50.480Z,18.50
2023-04-21T15:50:18.094Z,18.55
2023-04-21T15:52:45.777Z,18.57
2023-04-21T15:55:15.234Z,18.58
2023-04-21T15:57:42.782Z,18.53
2023-04-21T16:00:11.242Z,18.64
2023-04-21T16:02:38.880Z,18.66
2023-04-21T16:05:07.796Z,18.67
2023-04-21T16:07:38.679Z,18.66
2023-04-21T16:10:07.289Z,18.49
2023-04-21T16:12:36.172Z,18.43
2023-04-21T16:15:20.242Z,18.38
2023-04-21T16:17:50.982Z,18.51
2023-04-21T16:20:18.616Z,18.54
2023-04-21T16:22:46.207Z,18.76
2023-04-21T16:25:14.283Z,18.83
2023-04-21T16:27:43.350Z,18.81
2023-04-21T16:30:11.459Z,18.85
2023-04-21T16:32:39.192Z,18.78
2023-04-21T16:35:08.607Z,18.66
2023-04-21T16:37:38.045Z,18.59
2023-04-21T16:40:07.390Z,18.46
2023-04-21T16:42:35.109Z,18.42
2023-04-21T16:45:04.547Z,18.31
2023-04-21T16:47:33.810Z,18.35
2023-04-21T16:50:01.395Z,18.33
2023-04-21T16:52:28.847Z,18.49
2023-04-21T16:54:56.358Z,18.49
2023-04-21T16:57:25.052Z,18.45
2023-04-21T16:59:52.805Z,18.55
2023-04-21T17:02:21.744Z,18.52
2023-04-21T17:04:49.246Z,18.59
2023-04-21T17:07:16.832Z,18.57
2023-04-21T17:09:44.342Z,18.57
2023-04-21T17:12:11.807Z,18.42
2023-04-21T17:14:39.450Z,18.23
2023-04-21T17:17:07.344Z,18.20
2023-04-21T17:19:36.482Z,18.20
2023-04-21T17:22:03.914Z,18.20
2023-04-21T17:24:44.781Z,18.15
2023-04-21T17:27:20.343Z,18.04
2023-04-21T17:29:47.875Z,17.94
2023-04-21T17:32:15.461Z,17.91
2023-04-21T17:34:44.435Z,17.82
2023-04-21T17:37:11.901Z,17.83
2023-04-21T17:39:39.524Z,17.73
2023-04-21T17:42:07.121Z,17.62
2023-04-21T17:44:34.997Z,17.57
2023-04-21T17:47:03.929Z,17.45
2023-04-21T17:49:31.469Z,17.50
2023-04-21T17:52:00.714Z,17.39
2023-04-21T17:54:37.341Z,17.37
2023-04-21T17:57:06.869Z,17.35
2023-04-21T17:59:35.307Z,17.29
2023-04-21T18:02:03.820Z,16.79
2023-04-21T18:04:34.221Z,16.74
2023-04-21T18:07:04.276Z,16.50
2023-04-21T18:09:33.168Z,16.57
2023-04-21T18:12:01.862Z,16.25
2023-04-21T18:14:31.285Z,16.15
2023-04-21T18:16:58.937Z,16.24
2023-04-21T18:19:26.424Z,16.28
2023-04-21T18:21:53.961Z,16.12
2023-04-21T18:24:22.844Z,16.12
2023-04-21T18:26:51.170Z,16.02
2023-04-21T18:29:19.440Z,15.92
2023-04-21T18:31:46.988Z,15.80
2023-04-21T18:34:15.098Z,15.89
2023-04-21T18:36:43.430Z,15.64
2023-04-21T18:39:11.441Z,15.60
2023-04-21T18:41:40.442Z,15.16
2023-04-21T18:44:07.969Z,15.38
2023-04-21T18:46:35.498Z,15.26
2023-04-21T18:49:02.993Z,15.44
2023-04-21T18:51:31.566Z,15.30
2023-04-21T18:53:59.068Z,15.17
2023-04-21T18:56:26.828Z,14.86
2023-04-21T18:58:55.733Z,14.88
2023-04-21T19:01:23.191Z,14.89
2023-04-21T19:03:50.979Z,14.85
2023-04-21T19:06:18.571Z,14.86
2023-04-21T19:08:46.001Z,15.15
2023-04-21T19:11:14.796Z,15.08
2023-04-21T19:13:42.244Z,15.04
2023-04-21T19:16:12.133Z,14.94
2023-04-21T19:18:39.911Z,14.87
2023-04-21T19:21:10.282Z,14.78
2023-04-21T19:23:37.727Z,14.87
2023-04-21T19:26:05.646Z,14.85
2023-04-21T19:28:33.190Z,14.82
2023-04-21T19:31:00.656Z,14.79
2023-04-21T19:33:29.593Z,14.67
2023-04-21T19:35:58.232Z,14.63
2023-04-21T19:38:25.784Z,14.66
2023-04-21T19:40:54.720Z,14.63
2023-04-21T19:43:23.999Z,14.54
2023-04-21T19:45:51.823Z,14.49
2023-04-21T19:48:19.350Z,14.48
2023-04-21T19:50:48.178Z,14.36
2023-04-21T19:53:15.620Z,14.36
2023-04-21T19:55:43.200Z,14.20
2023-04-21T19:58:10.775Z,14.12
2023-04-21T20:00:38.266Z,14.10
2023-04-21T20:03:07.552Z,14.31
2023-04-21T20:05:35.360Z,14.37
2023-04-21T20:08:04.258Z,14.24
2023-04-21T20:10:31.766Z,13.98
2023-04-21T20:12:59.209Z,14.04
2023-04-21T20:15:26.904Z,14.15
2023-04-21T20:17:54.518Z,13.85
2023-04-21T20:20:22.180Z,13.78
2023-04-21T20:22:49.630Z,13.65
2023-04-21T20:25:18.884Z,13.73
2023-04-21T20:27:46.583Z,13.42
2023-04-21T20:30:14.331Z,13.28
2023-04-21T20:32:41.848Z,13.06
2023-04-21T20:35:11.509Z,13.18
2023-04-21T20:37:38.958Z,13.15
2023-04-21T20:40:08.197Z,13.28
2023-04-21T20:42:37.179Z,13.34
2023-04-21T20:45:06.053Z,13.65
2023-04-21T20:47:33.738Z,13.81
2023-04-21T20:50:01.349Z,13.66
2023-04-21T20:52:28.946Z,13.52
2023-04-21T20:54:56.541Z,13.47
2023-04-21T20:57:26.669Z,13.21
2023-04-21T20:59:55.480Z,13.21
2023-04-21T21:02:23.086Z,13.30
2023-04-21T21:04:50.713Z,13.19
2023-04-21T21:07:18.228Z,13.28
2023-04-21T21:09:45.698Z,13.41
2023-04-21T21:12:13.185Z,13.26
2023-04-21T21:14:40.822Z,13.29
2023-04-21T21:17:09.859Z,13.25
2023-04-21T21:19:37.710Z,13.00
2023-04-21T21:22:05.365Z,12.86
2023-04-21T21:24:32.811Z,12.78
2023-04-21T21:27:01.400Z,12.92
2023-04-21T21:29:29.732Z,12.98
2023-04-21T21:31:57.209Z,13.03
2023-04-21T21:34:26.124Z,13.20
2023-04-21T21:36:53.590Z,13.23
2023-04-21T21:39:21.224Z,13.14
2023-04-21T21:41:48.677Z,13.17
2023-04-21T21:44:16.114Z,12.89
2023-04-21T21:46:44.127Z,12.71
2023-04-21T21:49:11.882Z,12.51
2023-04-21T21:51:40.732Z,12.38
2023-04-21T21:54:08.874Z,12.44
2023-04-21T21:56:36.628Z,12.61
2023-04-21T21:59:04.103Z,12.64
2023-04-21T22:01:31.635Z,12.52
2023-04-21T22:03:59.207Z,12.32
2023-04-21T22:06:28.809Z,12.43
2023-04-21T22:08:57.687Z,12.36
2023-04-21T22:11:25.315Z,12.25
2023-04-21T22:13:52.796Z,12.29
2023-04-21T22:16:20.411Z,12.12
2023-04-21T22:18:48.340Z,12.00
2023-04-21T22:21:15.991Z,12.01
2023-04-21T22:23:43.539Z,11.67
2023-04-21T22:26:12.474Z,11.70
2023-04-21T22:28:41.625Z,11.95
2023-04-21T22:31:10.247Z,11.98
2023-04-21T22:33:38.175Z,11.83
2023-04-21T22:36:08.559Z,11.79
2023-04-21T22:38:37.542Z,11.75
2023-04-21T22:41:05.248Z,11.60
2023-04-21T22:43:34.121Z,11.75
2023-04-21T22:46:02.198Z,11.80
2023-04-21T22:48:30.177Z,11.67
2023-04-21T22:50:58.846Z,11.63
2023-04-21T22:53:26.379Z,11.50
2023-04-21T22:55:53.994Z,11.61
2023-04-21T22:58:22.060Z,11.57
2023-04-21T23:00:51.122Z,11.46
2023-04-21T23:03:19.340Z,11.59
2023-04-21T23:05:46.918Z,11.53
2023-04-21T23:08:14.402Z,11.50
2023-04-21T23:10:41.926Z,11.40
2023-04-21T23:13:09.556Z,11.29
2023-04-21T23:15:37.090Z,11.36
2023-04-21T23:18:06.117Z,11.39
2023-04-21T23:20:33.766Z,11.35
2023-04-21T23:23:01.262Z,11.26
2023-04-21T23:25:28.715Z,11.17
2023-04-21T23:27:56.380Z,11.15
2023-04-21T23:30:23.819Z,11.10
2023-04-21T23:32:51.300Z,11.57
2023-04-21T23:35:20.147Z,11.25
2023-04-21T23:37:48.476Z,11.21
2023-04-21T23:40:16.007Z,11.21
2023-04-21T23:42:47.084Z,11.04
2023-04-21T23:45:15.194Z,11.06
2023-04-21T23:47:42.686Z,11.05
2023-04-21T23:50:11.283Z,11.27
2023-04-21T23:52:41.974Z,11.22
2023-04-21T23:55:11.739Z,11.31
2023-04-21T23:57:39.246Z,11.46
